createdAt,value
2018-11-07T00:00:24.996Z,42.93
2018-11-07T00:02:54.361Z,43.77
2018-11-07T00:05:24.037Z,42.33
2018-11-07T00:07:52.929Z,46.50
2018-11-07T00:10:23.477Z,43.07
2018-11-07T00:12:52.103Z,46.33
2018-11-07T00:15:22.157Z,45.70
2018-11-07T00:17:58.526Z,43.93
2018-11-07T00:20:27.779Z,42.97
2018-11-07T00:22:58.056Z,45.50
2018-11-07T00:25:26.906Z,45.40
2018-11-07T00:27:55.863Z,45.00
2018-11-07T00:30:24.518Z,45.37
2018-11-07T00:32:53.694Z,45.03
2018-11-07T00:35:22.432Z,44.37
2018-11-07T00:37:53.359Z,44.83
2018-11-07T00:40:22.088Z,44.97
2018-11-07T00:42:51.295Z,45.93
2018-11-07T00:45:20.019Z,42.93
2018-11-07T00:47:50.475Z,50.17
2018-11-07T00:50:19.835Z,47.60
2018-11-07T00:52:50.504Z,48.10
2018-11-07T00:55:23.110Z,44.53
2018-11-07T00:57:51.801Z,47.17
2018-11-07T01:00:22.749Z,47.97
2018-11-07T01:02:51.532Z,50.50
2018-11-07T01:05:20.337Z,48.10
2018-11-07T01:07:49.616Z,47.60
2018-11-07T01:10:19.701Z,46.73
2018-11-07T01:12:49.352Z,50.47
2018-11-07T01:15:19.999Z,48.93
2018-11-07T01:17:48.774Z,48.97
2018-11-07T01:20:17.395Z,51.13
2018-11-07T01:22:46.209Z,48.87
2018-11-07T01:25:14.934Z,49.70
2018-11-07T01:27:43.650Z,51.50
2018-11-07T01:30:15.694Z,49.87
2018-11-07T01:32:44.394Z,48.67
2018-11-07T01:35:15.337Z,47.87
2018-11-07T01:37:44.828Z,47.30
2018-11-07T01:40:15.332Z,46.83
2018-11-07T01:42:44.615Z,47.80
2018-11-07T01:45:17.036Z,48.80
2018-11-07T01:47:46.633Z,46.43
2018-11-07T01:50:17.101Z,47.57
2018-11-07T01:52:45.891Z,48.83
2018-11-07T01:55:15.414Z,48.07
2018-11-07T01:57:44.204Z,44.10
2018-11-07T02:00:12.970Z,46.80
2018-11-07T02:02:44.332Z,45.30
2018-11-07T02:05:13.831Z,46.97
2018-11-07T02:07:43.083Z,48.17
2018-11-07T02:10:12.011Z,50.43
2018-11-07T02:12:41.458Z,49.83
2018-11-07T02:15:10.728Z,47.90
2018-11-07T02:17:39.452Z,50.10
2018-11-07T02:20:09.344Z,49.37
2018-11-07T02:22:38.626Z,45.47
2018-11-07T02:25:08.257Z,46.83
2018-11-07T02:27:37.228Z,44.63
2018-11-07T02:30:08.465Z,49.13
2018-11-07T02:32:37.148Z,47.80
2018-11-07T02:35:06.292Z,47.60
2018-11-07T02:37:35.052Z,47.97
2018-11-07T02:40:03.737Z,49.33
2018-11-07T02:42:32.450Z,48.10
2018-11-07T02:45:02.016Z,46.67
2018-11-07T02:47:30.793Z,50.60
2018-11-07T02:49:59.545Z,48.37
2018-11-07T02:52:29.592Z,48.97
2018-11-07T02:54:58.192Z,47.97
2018-11-07T02:57:26.852Z,49.73
2018-11-07T02:59:57.072Z,46.17
2018-11-07T03:02:25.708Z,48.57
2018-11-07T03:04:55.640Z,46.40
2018-11-07T03:07:24.280Z,47.47
2018-11-07T03:09:52.914Z,48.87
2018-11-07T03:12:23.476Z,50.47
2018-11-07T03:14:57.301Z,50.37
2018-11-07T03:17:26.036Z,49.53
2018-11-07T03:19:54.684Z,51.77
2018-11-07T03:22:26.285Z,48.30
2018-11-07T03:24:55.011Z,47.73
2018-11-07T03:27:23.799Z,50.47
2018-11-07T03:29:52.636Z,50.30
2018-11-07T03:32:23.337Z,49.13
2018-11-07T03:34:52.453Z,50.30
2018-11-07T03:37:22.797Z,48.33
2018-11-07T03:39:51.423Z,50.53
2018-11-07T03:42:23.419Z,51.00
2018-11-07T03:44:52.020Z,50.63
2018-11-07T03:47:20.639Z,50.60
2018-11-07T03:49:51.041Z,49.23
2018-11-07T03:52:20.906Z,50.70
2018-11-07T03:54:50.809Z,49.97
2018-11-07T03:57:21.110Z,50.07
2018-11-07T03:59:49.740Z,50.40
2018-11-07T04:02:20.113Z,50.33
2018-11-07T04:04:49.273Z,51.57
2018-11-07T04:07:18.551Z,48.93
2018-11-07T04:09:47.494Z,49.07
2018-11-07T04:12:17.745Z,52.20
2018-11-07T04:14:47.283Z,51.17
2018-11-07T04:17:15.977Z,49.63
2018-11-07T04:19:51.414Z,50.77
2018-11-07T04:22:20.092Z,49.37
2018-11-07T04:24:48.872Z,51.20
2018-11-07T04:27:19.911Z,51.53
2018-11-07T04:29:48.637Z,51.97
2018-11-07T04:32:17.327Z,52.73
2018-11-07T04:34:51.225Z,51.20
2018-11-07T04:37:19.904Z,49.90
2018-11-07T04:39:48.958Z,50.97
2018-11-07T04:42:17.573Z,51.00
2018-11-07T04:44:47.149Z,49.77
2018-11-07T04:47:15.948Z,47.73
2018-11-07T04:49:44.569Z,47.43
2018-11-07T04:52:13.211Z,49.40
2018-11-07T04:54:41.841Z,53.30
2018-11-07T04:57:10.557Z,51.43
2018-11-07T04:59:43.359Z,51.27
2018-11-07T05:02:12.005Z,49.17
2018-11-07T05:04:40.647Z,50.53
2018-11-07T05:07:09.677Z,49.47
2018-11-07T05:09:40.409Z,52.60
2018-11-07T05:12:09.154Z,50.70
2018-11-07T05:14:37.837Z,54.07
2018-11-07T05:17:08.146Z,52.87
2018-11-07T05:19:36.833Z,54.17
2018-11-07T05:22:05.431Z,53.97
2018-11-07T05:24:38.285Z,51.03
2018-11-07T05:27:06.989Z,51.63
2018-11-07T05:29:36.881Z,51.63
2018-11-07T05:32:07.332Z,50.40
2018-11-07T05:34:35.880Z,50.97
2018-11-07T05:37:04.760Z,53.03
2018-11-07T05:39:33.384Z,50.93
2018-11-07T05:42:02.062Z,49.27
2018-11-07T05:44:33.109Z,49.63
2018-11-07T05:47:02.490Z,51.10
2018-11-07T05:49:31.106Z,53.03
2018-11-07T05:52:01.353Z,52.80
2018-11-07T05:54:30.019Z,54.07
2018-11-07T05:56:58.709Z,56.10
2018-11-07T05:59:28.631Z,52.00
2018-11-07T06:01:57.268Z,53.83
2018-11-07T06:04:25.936Z,56.13
2018-11-07T06:06:54.704Z,53.40
2018-11-07T06:09:23.368Z,54.17
2018-11-07T06:11:52.226Z,54.70
2018-11-07T06:14:20.892Z,56.47
2018-11-07T06:16:51.463Z,53.27
2018-11-07T06:19:20.065Z,52.67
2018-11-07T06:21:48.808Z,51.87
2018-11-07T06:24:17.613Z,54.30
2018-11-07T06:26:46.906Z,51.57
2018-11-07T06:29:16.598Z,52.03
2018-11-07T06:31:45.377Z,53.33
2018-11-07T06:34:14.068Z,51.53
2018-11-07T06:36:47.793Z,54.70
2018-11-07T06:39:16.418Z,52.83
2018-11-07T06:41:45.601Z,54.03
2018-11-07T06:44:14.460Z,54.23
2018-11-07T06:46:43.220Z,51.30
2018-11-07T06:49:11.847Z,52.33
2018-11-07T06:51:46.870Z,51.27
2018-11-07T06:54:15.517Z,52.20
2018-11-07T06:56:44.146Z,53.57
2018-11-07T06:59:14.220Z,52.87
2018-11-07T07:01:42.865Z,53.07
2018-11-07T07:04:12.101Z,54.47
2018-11-07T07:09:15.028Z,52.40
2018-11-07T07:11:44.328Z,51.67
2018-11-07T07:14:14.644Z,54.33
2018-11-07T07:16:43.250Z,50.27
2018-11-07T07:19:14.113Z,49.17
2018-11-07T07:21:42.765Z,50.87
2018-11-07T07:24:11.426Z,52.40
2018-11-07T07:26:40.081Z,49.63
2018-11-07T07:29:09.017Z,52.00
2018-11-07T07:31:37.628Z,50.23
2018-11-07T07:34:15.829Z,51.30
2018-11-07T07:36:45.464Z,55.03
2018-11-07T07:39:14.140Z,55.20
2018-11-07T07:41:46.482Z,50.40
2018-11-07T07:44:15.340Z,53.60
2018-11-07T07:46:44.349Z,48.60
2018-11-07T07:49:15.032Z,48.20
2018-11-07T07:51:43.639Z,49.43
2018-11-07T07:54:12.786Z,51.77
2018-11-07T07:56:41.475Z,50.50
2018-11-07T07:59:10.215Z,50.47
2018-11-07T08:01:38.982Z,50.10
2018-11-07T08:04:07.684Z,51.90
2018-11-07T08:06:41.155Z,51.77
2018-11-07T08:09:12.072Z,51.87
2018-11-07T08:11:41.090Z,50.10
2018-11-07T08:14:10.599Z,49.17
2018-11-07T08:16:39.361Z,50.17
2018-11-07T08:19:10.455Z,51.03
2018-11-07T08:21:39.174Z,48.47
2018-11-07T08:24:14.662Z,48.43
2018-11-07T08:26:43.664Z,46.50
2018-11-07T08:29:12.345Z,50.73
2018-11-07T08:31:40.987Z,47.00
2018-11-07T08:34:09.639Z,48.47
2018-11-07T08:36:38.590Z,49.50
2018-11-07T08:39:09.361Z,45.80
2018-11-07T08:41:39.493Z,45.93
2018-11-07T08:44:09.288Z,45.97
2018-11-07T08:46:39.371Z,47.37
2018-11-07T08:49:08.481Z,46.07
2018-11-07T08:51:37.113Z,43.80
2018-11-07T08:54:05.849Z,48.60
2018-11-07T08:56:36.690Z,45.50
2018-11-07T08:59:05.672Z,45.00
2018-11-07T09:04:03.432Z,45.83
2018-11-07T09:06:33.241Z,48.70
2018-11-07T09:09:02.006Z,44.37
2018-11-07T09:11:31.104Z,46.20
2018-11-07T09:14:00.364Z,47.00
2018-11-07T09:16:29.720Z,46.00
2018-11-07T09:18:59.661Z,46.67
2018-11-07T09:21:28.345Z,47.00
2018-11-07T09:23:57.112Z,45.47
2018-11-07T09:26:28.470Z,47.30
2018-11-07T09:28:57.290Z,45.93
2018-11-07T09:31:26.295Z,44.60
2018-11-07T09:33:54.940Z,46.40
2018-11-07T09:36:23.764Z,46.53
2018-11-07T09:38:52.665Z,48.10
2018-11-07T09:41:25.355Z,45.30
2018-11-07T09:43:54.086Z,45.70
2018-11-07T09:46:22.963Z,46.27
2018-11-07T09:48:53.418Z,47.80
2018-11-07T09:51:22.135Z,47.33
2018-11-07T09:53:53.035Z,44.60
2018-11-07T09:56:21.617Z,44.27
2018-11-07T09:58:50.493Z,45.10
2018-11-07T10:01:20.156Z,45.40
2018-11-07T10:03:50.097Z,45.90
2018-11-07T10:06:19.023Z,45.70
2018-11-07T10:08:47.873Z,48.40
2018-11-07T10:11:16.622Z,45.37
2018-11-07T10:13:45.276Z,48.20
2018-11-07T10:16:13.956Z,46.83
2018-11-07T10:18:45.073Z,47.70
2018-11-07T10:21:14.042Z,47.47
2018-11-07T10:23:43.437Z,46.93
2018-11-07T10:26:13.102Z,49.43
2018-11-07T10:28:42.122Z,47.43
2018-11-07T10:31:10.538Z,44.53
2018-11-07T10:33:46.249Z,45.13
2018-11-07T10:36:21.729Z,48.03
2018-11-07T10:38:51.746Z,45.70
2018-11-07T10:41:20.390Z,45.73
2018-11-07T10:43:49.229Z,44.07
2018-11-07T10:46:18.054Z,47.50
2018-11-07T10:48:48.861Z,44.57
2018-11-07T10:51:19.253Z,42.80
2018-11-07T10:53:48.821Z,44.03
2018-11-07T10:56:18.038Z,44.23
2018-11-07T10:58:47.329Z,43.23
2018-11-07T11:01:21.296Z,41.60
2018-11-07T11:03:50.666Z,41.77
2018-11-07T11:06:19.413Z,41.53
2018-11-07T11:08:48.032Z,40.53
2018-11-07T11:11:16.753Z,41.17
2018-11-07T11:13:45.346Z,42.43
2018-11-07T11:16:14.030Z,41.27
2018-11-07T11:18:42.645Z,42.40
2018-11-07T11:21:12.440Z,41.17
2018-11-07T11:23:41.097Z,41.37
2018-11-07T11:26:09.732Z,41.97
2018-11-07T11:28:39.086Z,46.17
2018-11-07T11:31:07.789Z,39.80
2018-11-07T11:33:36.446Z,43.77
2018-11-07T11:36:05.316Z,44.20
2018-11-07T11:38:36.201Z,42.97
2018-11-07T11:41:05.108Z,42.23
2018-11-07T11:43:33.683Z,42.20
2018-11-07T11:46:02.329Z,45.13
2018-11-07T11:48:33.548Z,40.90
2018-11-07T11:51:02.248Z,41.17
2018-11-07T11:53:31.899Z,41.30
2018-11-07T11:56:00.909Z,41.93
2018-11-07T11:58:29.546Z,42.90
2018-11-07T12:00:59.889Z,42.37
2018-11-07T12:03:28.534Z,44.37
2018-11-07T12:05:59.159Z,43.80
2018-11-07T12:08:27.960Z,41.23
2018-11-07T12:10:57.655Z,41.03
2018-11-07T12:13:26.320Z,41.43
2018-11-07T12:15:57.163Z,40.50
2018-11-07T12:18:25.953Z,41.00
2018-11-07T12:20:55.952Z,38.53
2018-11-07T12:23:24.537Z,40.40
2018-11-07T12:25:53.164Z,40.07
2018-11-07T12:28:22.037Z,39.87
2018-11-07T12:30:50.669Z,39.73
2018-11-07T12:33:19.304Z,40.57
2018-11-07T12:35:47.988Z,39.73
2018-11-07T12:38:20.021Z,42.07
2018-11-07T12:40:49.658Z,39.07
2018-11-07T12:43:18.312Z,37.90
2018-11-07T12:45:49.026Z,37.53
2018-11-07T12:48:17.792Z,37.77
2018-11-07T12:50:46.408Z,38.63
2018-11-07T12:53:15.796Z,39.03
2018-11-07T12:55:45.411Z,41.37
2018-11-07T12:58:14.190Z,41.90
2018-11-07T13:00:42.668Z,41.43
2018-11-07T13:03:11.281Z,40.37
2018-11-07T13:05:39.933Z,39.63
2018-11-07T13:08:12.220Z,41.83
2018-11-07T13:10:40.923Z,41.23
2018-11-07T13:13:10.804Z,41.57
2018-11-07T13:15:39.457Z,44.70
2018-11-07T13:18:10.498Z,41.50
2018-11-07T13:20:39.214Z,45.10
2018-11-07T13:23:08.005Z,39.30
2018-11-07T13:25:36.618Z,42.07
2018-11-07T13:28:09.317Z,41.50
2018-11-07T13:30:37.989Z,43.17
2018-11-07T13:33:06.728Z,42.13
2018-11-07T13:35:37.042Z,43.43
2018-11-07T13:38:05.934Z,42.13
2018-11-07T13:40:36.293Z,41.90
2018-11-07T13:43:05.001Z,42.60
2018-11-07T13:45:34.979Z,42.60
2018-11-07T13:48:03.569Z,42.00
2018-11-07T13:50:32.183Z,42.30
2018-11-07T13:53:01.440Z,44.00
2018-11-07T13:55:30.995Z,40.97
2018-11-07T13:57:59.849Z,39.70
2018-11-07T14:00:28.842Z,43.37
2018-11-07T14:02:57.467Z,41.23
2018-11-07T14:05:26.440Z,44.87
2018-11-07T14:07:56.201Z,43.07
2018-11-07T14:10:27.341Z,40.40
2018-11-07T14:12:56.477Z,41.63
2018-11-07T14:15:25.172Z,40.57
2018-11-07T14:17:53.912Z,36.80
2018-11-07T14:20:22.604Z,41.93
2018-11-07T14:22:51.272Z,43.80
2018-11-07T14:25:20.255Z,42.33
2018-11-07T14:27:51.982Z,41.80
2018-11-07T14:30:21.057Z,40.60
2018-11-07T14:32:55.687Z,39.87
2018-11-07T14:35:24.642Z,42.30
2018-11-07T14:37:54.636Z,42.00
2018-11-07T14:40:23.472Z,40.80
2018-11-07T14:42:56.533Z,42.87
2018-11-07T14:45:25.177Z,41.37
2018-11-07T14:47:53.919Z,43.10
2018-11-07T14:50:22.677Z,43.83
2018-11-07T14:52:56.378Z,43.67
2018-11-07T14:55:27.216Z,44.70
2018-11-07T14:57:57.580Z,44.30
2018-11-07T15:00:26.642Z,44.97
2018-11-07T15:02:56.293Z,47.10
2018-11-07T15:05:24.990Z,44.03
2018-11-07T15:07:53.679Z,46.07
2018-11-07T15:10:22.782Z,46.10
2018-11-07T15:12:51.477Z,47.70
2018-11-07T15:15:22.827Z,45.60
2018-11-07T15:17:51.465Z,44.67
2018-11-07T15:20:20.184Z,50.10
2018-11-07T15:22:49.109Z,47.63
2018-11-07T15:25:18.186Z,45.43
2018-11-07T15:27:47.644Z,47.77
2018-11-07T15:30:17.665Z,48.10
2018-11-07T15:32:48.280Z,51.20
2018-11-07T15:35:17.567Z,48.43
2018-11-07T15:37:46.189Z,49.70
2018-11-07T15:40:15.917Z,50.37
2018-11-07T15:42:45.183Z,50.50
2018-11-07T15:45:16.011Z,46.17
2018-11-07T15:47:44.762Z,49.97
2018-11-07T15:50:18.792Z,46.20
2018-11-07T15:52:47.952Z,48.77
2018-11-07T15:55:16.578Z,47.43
2018-11-07T15:57:45.364Z,50.30
2018-11-07T16:00:16.926Z,48.10
2018-11-07T16:02:45.639Z,47.47
2018-11-07T16:05:16.385Z,47.83
2018-11-07T16:07:45.240Z,48.07
2018-11-07T16:10:14.841Z,47.30
2018-11-07T16:12:43.764Z,46.70
2018-11-07T16:15:14.147Z,46.83
2018-11-07T16:17:42.965Z,47.83
2018-11-07T16:20:12.942Z,47.73
2018-11-07T16:22:43.104Z,48.87
2018-11-07T16:25:14.097Z,49.90
2018-11-07T16:27:43.843Z,49.90
2018-11-07T16:30:14.925Z,48.40
2018-11-07T16:32:44.205Z,50.00
2018-11-07T16:35:13.440Z,51.97
2018-11-07T16:37:43.385Z,53.80
2018-11-07T16:40:13.579Z,53.50
2018-11-07T16:42:45.092Z,52.37
2018-11-07T16:45:15.690Z,53.37
2018-11-07T16:47:44.463Z,51.07
2018-11-07T16:50:17.587Z,49.23
2018-11-07T16:52:46.353Z,53.07
2018-11-07T16:55:18.752Z,53.87
2018-11-07T16:57:47.592Z,51.80
2018-11-07T17:00:17.990Z,51.33
2018-11-07T17:02:47.866Z,52.70
2018-11-07T17:05:19.170Z,51.00
2018-11-07T17:07:48.265Z,54.00
2018-11-07T17:10:17.246Z,52.43
2018-11-07T17:12:46.009Z,54.53
2018-11-07T17:15:15.003Z,53.90
2018-11-07T17:17:43.731Z,54.87
2018-11-07T17:20:15.289Z,57.03
2018-11-07T17:22:44.137Z,54.53
2018-11-07T17:25:15.045Z,56.03
2018-11-07T17:27:45.237Z,54.47
2018-11-07T17:30:15.110Z,55.40
2018-11-07T17:32:44.197Z,56.80
2018-11-07T17:35:14.201Z,55.27
2018-11-07T17:37:43.485Z,51.93
2018-11-07T17:40:18.412Z,54.50
2018-11-07T17:42:47.684Z,55.67
2018-11-07T17:45:19.244Z,51.93
2018-11-07T17:47:49.565Z,57.43
2018-11-07T17:50:19.389Z,54.50
2018-11-07T17:52:48.585Z,54.87
2018-11-07T17:55:19.224Z,57.60
2018-11-07T17:57:50.265Z,57.23
2018-11-07T18:00:20.233Z,52.30
2018-11-07T18:02:53.932Z,53.80
2018-11-07T18:05:23.400Z,53.30
2018-11-07T18:07:52.092Z,55.90
2018-11-07T18:10:20.815Z,57.37
2018-11-07T18:12:49.580Z,53.90
2018-11-07T18:15:19.169Z,57.93
2018-11-07T18:17:49.149Z,54.53
2018-11-07T18:20:18.232Z,54.33
2018-11-07T18:22:46.963Z,54.10
2018-11-07T18:25:18.565Z,57.83
2018-11-07T18:27:47.248Z,54.53
2018-11-07T18:30:18.274Z,56.70
2018-11-07T18:32:47.650Z,54.23
2018-11-07T18:42:18.872Z,53.67
2018-11-07T18:44:48.755Z,55.57
2018-11-07T18:47:25.220Z,55.70
2018-11-07T18:49:53.984Z,53.60
2018-11-07T18:52:24.541Z,55.00
2018-11-07T18:54:54.033Z,55.83
2018-11-07T18:57:23.039Z,54.30
2018-11-07T18:59:51.783Z,59.00
2018-11-07T19:02:24.019Z,57.77
2018-11-07T19:04:52.941Z,54.53
2018-11-07T19:07:21.574Z,57.90
2018-11-07T19:09:52.306Z,54.30
2018-11-07T19:12:21.021Z,54.20
2018-11-07T19:14:49.787Z,52.83
2018-11-07T19:17:18.604Z,54.40
2018-11-07T19:19:47.885Z,54.20
2018-11-07T19:22:18.117Z,56.40
2018-11-07T19:24:47.413Z,54.27
2018-11-07T19:27:16.146Z,54.10
2018-11-07T19:29:45.320Z,56.37
2018-11-07T19:32:14.062Z,52.43
2018-11-07T19:34:47.235Z,53.37
2018-11-07T19:37:16.074Z,52.00
2018-11-07T19:39:45.200Z,52.77
2018-11-07T19:42:16.463Z,56.27
2018-11-07T19:44:45.540Z,55.90
2018-11-07T19:47:14.545Z,56.37
2018-11-07T19:49:45.332Z,54.50
2018-11-07T19:52:16.216Z,56.03
2018-11-07T19:54:47.429Z,53.70
2018-11-07T19:57:18.038Z,58.23
2018-11-07T19:59:51.095Z,55.90
2018-11-07T20:02:19.781Z,55.13
2018-11-07T20:04:49.473Z,51.83
2018-11-07T20:07:18.135Z,53.23
2018-11-07T20:09:46.914Z,54.10
2018-11-07T20:12:15.655Z,54.23
2018-11-07T20:14:44.338Z,52.57
2018-11-07T20:17:13.901Z,52.90
2018-11-07T20:19:42.629Z,53.10
2018-11-07T20:22:13.273Z,52.90
2018-11-07T20:24:42.157Z,54.27
2018-11-07T20:27:11.230Z,52.80
2018-11-07T20:29:43.584Z,53.83
2018-11-07T20:32:12.424Z,53.43
2018-11-07T20:34:41.108Z,50.10
2018-11-07T20:37:10.670Z,54.07
2018-11-07T20:39:42.493Z,49.50
2018-11-07T20:42:11.255Z,55.17
2018-11-07T20:44:42.177Z,52.23
2018-11-07T20:47:11.196Z,55.47
2018-11-07T20:49:40.006Z,54.70
2018-11-07T20:52:08.722Z,53.27
2018-11-07T20:54:38.873Z,52.70
2018-11-07T20:57:07.670Z,54.17
2018-11-07T20:59:36.396Z,53.27
2018-11-07T21:02:05.306Z,53.40
2018-11-07T21:04:34.635Z,53.23
2018-11-07T21:07:03.300Z,49.27
2018-11-07T21:09:32.449Z,50.77
2018-11-07T21:12:01.585Z,51.23
2018-11-07T21:14:30.913Z,51.73
2018-11-07T21:16:59.728Z,49.93
2018-11-07T21:19:29.498Z,51.87
2018-11-07T21:21:58.326Z,49.60
2018-11-07T21:24:27.177Z,47.60
2018-11-07T21:26:57.354Z,50.63
2018-11-07T21:29:26.859Z,43.53
2018-11-07T21:31:55.575Z,44.13
2018-11-07T21:34:24.304Z,42.50
2018-11-07T21:36:53.037Z,41.50
2018-11-07T21:39:21.745Z,42.10
2018-11-07T21:41:50.444Z,43.83
2018-11-07T21:44:19.272Z,42.20
2018-11-07T21:46:48.161Z,43.07
2018-11-07T21:49:16.902Z,43.47
2018-11-07T21:51:45.590Z,42.73
2018-11-07T21:54:15.188Z,45.00
2018-11-07T21:56:43.855Z,42.47
2018-11-07T21:59:13.085Z,47.10
2018-11-07T22:01:42.012Z,44.33
2018-11-07T22:04:15.270Z,43.67
2018-11-07T22:06:43.968Z,43.07
2018-11-07T22:09:13.133Z,44.33
2018-11-07T22:11:41.812Z,46.70
2018-11-07T22:14:10.448Z,46.13
2018-11-07T22:16:41.855Z,50.03
2018-11-07T22:19:10.637Z,51.03
2018-11-07T22:21:39.889Z,45.93
2018-11-07T22:24:08.365Z,49.27
2018-11-07T22:26:37.334Z,47.07
2018-11-07T22:29:06.454Z,49.47
2018-11-07T22:31:35.120Z,46.87
2018-11-07T22:34:03.798Z,51.63
2018-11-07T22:36:32.489Z,49.27
2018-11-07T22:39:04.672Z,47.90
2018-11-07T22:41:34.161Z,49.93
2018-11-07T22:44:03.721Z,51.17
2018-11-07T22:46:33.494Z,46.53
2018-11-07T22:49:02.217Z,46.70
2018-11-07T22:51:34.061Z,46.37
2018-11-07T22:54:03.141Z,46.77
2018-11-07T22:56:33.733Z,44.23
2018-11-07T22:59:02.352Z,46.60
2018-11-07T23:01:36.745Z,46.40
2018-11-07T23:04:05.808Z,46.70
2018-11-07T23:06:35.313Z,46.07
2018-11-07T23:09:06.586Z,45.97
2018-11-07T23:11:39.365Z,49.33
2018-11-07T23:14:09.192Z,44.60
2018-11-07T23:16:38.267Z,46.77
2018-11-07T23:19:07.307Z,47.47
2018-11-07T23:21:36.660Z,48.60
2018-11-07T23:24:05.665Z,43.50
2018-11-07T23:26:35.030Z,44.67
2018-11-07T23:29:04.395Z,45.53
2018-11-07T23:31:34.383Z,44.27
2018-11-07T23:34:03.348Z,43.87
2018-11-07T23:36:32.025Z,45.27
2018-11-07T23:39:02.629Z,44.77
2018-11-07T23:41:31.338Z,42.60
2018-11-07T23:44:00.929Z,43.53
2018-11-07T23:46:29.723Z,42.27
2018-11-07T23:48:58.388Z,41.77
2018-11-07T23:51:27.562Z,43.20
2018-11-07T23:53:56.168Z,40.33
2018-11-07T23:56:24.852Z,38.70
2018-11-07T23:58:54.881Z,38.07
